sensor_id;sensor_type;location;lat;lon;timestamp;P1;P2;P0
73861;PMS5003;63459;51.456;-0.916;2023-06-14T02:46:02;10;10;
73861;PMS5003;63459;51.456;-0.916;2023-06-14T02:48:28;6;6;
73861;PMS5003;63459;51.456;-0.916;2023-06-14T02:50:48;7;7;
73861;PMS5003;63459;51.456;-0.916;2023-06-14T02:53:13;8;7;
73861;PMS5003;63459;51.456;-0.916;2023-06-14T02:55:39;11;11;
73861;PMS5003;63459;51.456;-0.916;2023-06-14T02:58:04;9;8;
73861;PMS5003;63459;51.456;-0.916;2023-06-14T03:00:30;12;12;
73861;PMS5003;63459;51.456;-0.916;2023-06-14T03:02:55;7;7;
73861;PMS5003;63459;51.456;-0.916;2023-06-14T03:05:25;10;10;
73861;PMS5003;63459;51.456;-0.916;2023-06-14T03:07:50;7;7;
73861;PMS5003;63459;51.456;-0.916;2023-06-14T03:10:11;9;9;
73861;PMS5003;63459;51.456;-0.916;2023-06-14T03:12:36;8;7;
73861;PMS5003;63459;51.456;-0.916;2023-06-14T03:15:01;7;7;
73861;PMS5003;63459;51.456;-0.916;2023-06-14T03:17:27;7;7;
73861;PMS5003;63459;51.456;-0.916;2023-06-14T03:20:02;7;7;
73861;PMS5003;63459;51.456;-0.916;2023-06-14T03:24:42;6;6;
73861;PMS5003;63459;51.456;-0.916;2023-06-14T03:27:08;14;14;
73861;PMS5003;63459;51.456;-0.916;2023-06-14T03:29:34;7;6;
73861;PMS5003;63459;51.456;-0.916;2023-06-14T03:31:59;8;7;
73861;PMS5003;63459;51.456;-0.916;2023-06-14T03:34:29;7;6;
73861;PMS5003;63459;51.456;-0.916;2023-06-14T03:36:49;7;7;
73861;PMS5003;63459;51.456;-0.916;2023-06-14T03:39:14;5;5;
73861;PMS5003;63459;51.456;-0.916;2023-06-14T03:41:40;7;7;
73861;PMS5003;63459;51.456;-0.916;2023-06-14T03:44:05;6;6;
73861;PMS5003;63459;51.456;-0.916;2023-06-14T03:46:31;9;9;
73861;PMS5003;63459;51.456;-0.916;2023-06-14T03:48:56;9;9;
73861;PMS5003;63459;51.456;-0.916;2023-06-14T03:51:21;13;11;
73861;PMS5003;63459;51.456;-0.916;2023-06-14T03:53:46;8;8;
73861;PMS5003;63459;51.456;-0.916;2023-06-14T03:56:12;11;10;
73861;PMS5003;63459;51.456;-0.916;2023-06-14T04:03:27;8;7;
73861;PMS5003;63459;51.456;-0.916;2023-06-14T04:05:53;8;8;
73861;PMS5003;63459;51.456;-0.916;2023-06-14T04:08:18;11;7;
73861;PMS5003;63459;51.456;-0.916;2023-06-14T04:10:44;6;6;
73861;PMS5003;63459;51.456;-0.916;2023-06-14T04:13:09;8;8;
73861;PMS5003;63459;51.456;-0.916;2023-06-14T04:15:34;4;4;
73861;PMS5003;63459;51.456;-0.916;2023-06-14T04:18:00;6;5;
73861;PMS5003;63459;51.456;-0.916;2023-06-14T04:20:25;8;8;
73861;PMS5003;63459;51.456;-0.916;2023-06-14T04:22:50;7;7;
73861;PMS5003;63459;51.456;-0.916;2023-06-14T04:25:16;7;6;
73861;PMS5003;63459;51.456;-0.916;2023-06-14T04:27:41;10;10;
73861;PMS5003;63459;51.456;-0.916;2023-06-14T04:30:07;9;8;
73861;PMS5003;63459;51.456;-0.916;2023-06-14T04:32:32;7;6;
73861;PMS5003;63459;51.456;-0.916;2023-06-14T04:34:57;7;7;
73861;PMS5003;63459;51.456;-0.916;2023-06-14T04:37:22;6;6;
73861;PMS5003;63459;51.456;-0.916;2023-06-14T04:39:48;7;7;
73861;PMS5003;63459;51.456;-0.916;2023-06-14T04:42:13;9;8;
73861;PMS5003;63459;51.456;-0.916;2023-06-14T04:47:04;8;7;
73861;PMS5003;63459;51.456;-0.916;2023-06-14T04:49:29;9;9;
73861;PMS5003;63459;51.456;-0.916;2023-06-14T04:51:56;6;6;
73861;PMS5003;63459;51.456;-0.916;2023-06-14T04:54:20;6;6;
73861;PMS5003;63459;51.456;-0.916;2023-06-14T04:56:46;8;7;
73861;PMS5003;63459;51.456;-0.916;2023-06-14T04:59:12;5;4;
73861;PMS5003;63459;51.456;-0.916;2023-06-14T05:01:36;8;8;
73861;PMS5003;63459;51.456;-0.916;2023-06-14T05:04:01;6;5;
73861;PMS5003;63459;51.456;-0.916;2023-06-14T05:06:26;14;11;
73861;PMS5003;63459;51.456;-0.916;2023-06-14T05:08:53;10;9;
73861;PMS5003;63459;51.456;-0.916;2023-06-14T05:11:17;7;7;
73861;PMS5003;63459;51.456;-0.916;2023-06-14T05:13:42;7;6;
73861;PMS5003;63459;51.456;-0.916;2023-06-14T05:16:08;7;7;
73861;PMS5003;63459;51.456;-0.916;2023-06-14T05:18:33;7;7;
73861;PMS5003;63459;51.456;-0.916;2023-06-14T05:20:58;6;6;
73861;PMS5003;63459;51.456;-0.916;2023-06-14T05:23:23;5;5;
73861;PMS5003;63459;51.456;-0.916;2023-06-14T05:25:50;5;5;
73861;PMS5003;63459;51.456;-0.916;2023-06-14T05:28:14;6;6;
73861;PMS5003;63459;51.456;-0.916;2023-06-14T05:30:39;6;6;
73861;PMS5003;63459;51.456;-0.916;2023-06-14T05:33:04;5;5;
73861;PMS5003;63459;51.456;-0.916;2023-06-14T05:35:30;6;6;
73861;PMS5003;63459;51.456;-0.916;2023-06-14T05:37:56;6;5;
73861;PMS5003;63459;51.456;-0.916;2023-06-14T05:42:46;5;5;
73861;PMS5003;63459;51.456;-0.916;2023-06-14T05:45:16;4;4;
73861;PMS5003;63459;51.456;-0.916;2023-06-14T05:47:41;4;3;
73861;PMS5003;63459;51.456;-0.916;2023-06-14T05:50:01;5;5;
73861;PMS5003;63459;51.456;-0.916;2023-06-14T05:52:27;7;7;
73861;PMS5003;63459;51.456;-0.916;2023-06-14T05:54:55;7;6;
73861;PMS5003;63459;51.456;-0.916;2023-06-14T05:57:17;6;4;
73861;PMS5003;63459;51.456;-0.916;2023-06-14T05:59:42;6;6;
73861;PMS5003;63459;51.456;-0.916;2023-06-14T06:02:07;5;5;
73861;PMS5003;63459;51.456;-0.916;2023-06-14T06:04:33;4;4;
73861;PMS5003;63459;51.456;-0.916;2023-06-14T06:06:58;7;7;
73861;PMS5003;63459;51.456;-0.916;2023-06-14T06:09:28;5;5;
73861;PMS5003;63459;51.456;-0.916;2023-06-14T06:11:48;6;6;
73861;PMS5003;63459;51.456;-0.916;2023-06-14T06:14:23;5;5;
73861;PMS5003;63459;51.456;-0.916;2023-06-14T06:19:03;6;6;
73861;PMS5003;63459;51.456;-0.916;2023-06-14T06:21:28;7;6;
73861;PMS5003;63459;51.456;-0.916;2023-06-14T06:23:57;7;6;
73861;PMS5003;63459;51.456;-0.916;2023-06-14T06:26:34;8;7;
73861;PMS5003;63459;51.456;-0.916;2023-06-14T06:28:44;3;3;
73861;PMS5003;63459;51.456;-0.916;2023-06-14T06:31:09;7;6;
73861;PMS5003;63459;51.456;-0.916;2023-06-14T06:33:34;6;6;
73861;PMS5003;63459;51.456;-0.916;2023-06-14T06:35:59;5;5;
73861;PMS5003;63459;51.456;-0.916;2023-06-14T06:38:24;7;6;
73861;PMS5003;63459;51.456;-0.916;2023-06-14T06:40:49;6;5;
73861;PMS5003;63459;51.456;-0.916;2023-06-14T06:43:14;7;6;
73861;PMS5003;63459;51.456;-0.916;2023-06-14T06:45:39;6;6;
73861;PMS5003;63459;51.456;-0.916;2023-06-14T06:48:05;6;6;
73861;PMS5003;63459;51.456;-0.916;2023-06-14T06:50:34;5;4;
73861;PMS5003;63459;51.456;-0.916;2023-06-14T06:52:59;6;5;
73861;PMS5003;63459;51.456;-0.916;2023-06-14T06:55:20;7;7;
73861;PMS5003;63459;51.456;-0.916;2023-06-14T06:57:45;5;5;
73861;PMS5003;63459;51.456;-0.916;2023-06-14T07:00:10;8;6;
73861;PMS5003;63459;51.456;-0.916;2023-06-14T07:02:35;6;6;
73861;PMS5003;63459;51.456;-0.916;2023-06-14T07:05:00;7;7;
73861;PMS5003;63459;51.456;-0.916;2023-06-14T07:07:25;6;5;
73861;PMS5003;63459;51.456;-0.916;2023-06-14T07:09:51;6;6;
73861;PMS5003;63459;51.456;-0.916;2023-06-14T07:12:21;7;7;
73861;PMS5003;63459;51.456;-0.916;2023-06-14T07:14:41;6;6;
73861;PMS5003;63459;51.456;-0.916;2023-06-14T07:17:06;7;6;
73861;PMS5003;63459;51.456;-0.916;2023-06-14T07:19:31;5;5;
73861;PMS5003;63459;51.456;-0.916;2023-06-14T07:21:57;4;4;
73861;PMS5003;63459;51.456;-0.916;2023-06-14T07:24:27;6;6;
73861;PMS5003;63459;51.456;-0.916;2023-06-14T07:26:48;6;6;
73861;PMS5003;63459;51.456;-0.916;2023-06-14T07:29:12;6;6;
73861;PMS5003;63459;51.456;-0.916;2023-06-14T07:31:42;7;7;
73861;PMS5003;63459;51.456;-0.916;2023-06-14T07:34:02;7;6;
73861;PMS5003;63459;51.456;-0.916;2023-06-14T07:38:52;8;7;
73861;PMS5003;63459;51.456;-0.916;2023-06-14T07:41:17;7;7;
73861;PMS5003;63459;51.456;-0.916;2023-06-14T07:43:47;6;6;
73861;PMS5003;63459;51.456;-0.916;2023-06-14T07:46:08;9;9;
73861;PMS5003;63459;51.456;-0.916;2023-06-14T07:48:32;7;7;
73861;PMS5003;63459;51.456;-0.916;2023-06-14T07:51:00;8;7;
73861;PMS5003;63459;51.456;-0.916;2023-06-14T07:53:23;7;7;
73861;PMS5003;63459;51.456;-0.916;2023-06-14T07:55:48;7;6;
73861;PMS5003;63459;51.456;-0.916;2023-06-14T07:58:13;9;7;
73861;PMS5003;63459;51.456;-0.916;2023-06-14T08:00:38;7;7;
73861;PMS5003;63459;51.456;-0.916;2023-06-14T08:03:03;6;6;
73861;PMS5003;63459;51.456;-0.916;2023-06-14T08:05:28;8;8;
73861;PMS5003;63459;51.456;-0.916;2023-06-14T08:07:54;8;7;
73861;PMS5003;63459;51.456;-0.916;2023-06-14T08:10:24;9;9;
73861;PMS5003;63459;51.456;-0.916;2023-06-14T08:12:46;9;8;
73861;PMS5003;63459;51.456;-0.916;2023-06-14T08:15:10;11;11;
73861;PMS5003;63459;51.456;-0.916;2023-06-14T08:17:34;10;10;
73861;PMS5003;63459;51.456;-0.916;2023-06-14T08:20:00;10;10;
73861;PMS5003;63459;51.456;-0.916;2023-06-14T08:22:31;10;8;
73861;PMS5003;63459;51.456;-0.916;2023-06-14T08:24:50;9;8;
73861;PMS5003;63459;51.456;-0.916;2023-06-14T08:27:16;9;9;
73861;PMS5003;63459;51.456;-0.916;2023-06-14T08:29:47;13;11;
73861;PMS5003;63459;51.456;-0.916;2023-06-14T08:32:05;9;9;
73861;PMS5003;63459;51.456;-0.916;2023-06-14T08:34:31;10;9;
73861;PMS5003;63459;51.456;-0.916;2023-06-14T08:37:01;10;10;
73861;PMS5003;63459;51.456;-0.916;2023-06-14T08:39:21;9;9;
73861;PMS5003;63459;51.456;-0.916;2023-06-14T08:41:51;10;10;
73861;PMS5003;63459;51.456;-0.916;2023-06-14T08:44:11;10;9;
73861;PMS5003;63459;51.456;-0.916;2023-06-14T08:46:36;11;10;
73861;PMS5003;63459;51.456;-0.916;2023-06-14T08:49:01;9;9;
73861;PMS5003;63459;51.456;-0.916;2023-06-14T08:51:33;8;8;
73861;PMS5003;63459;51.456;-0.916;2023-06-14T08:53:52;9;9;
73861;PMS5003;63459;51.456;-0.916;2023-06-14T08:56:18;9;8;
73861;PMS5003;63459;51.456;-0.916;2023-06-14T08:58:43;9;8;
73861;PMS5003;63459;51.456;-0.916;2023-06-14T09:01:07;9;8;
73861;PMS5003;63459;51.456;-0.916;2023-06-14T09:03:33;9;9;
73861;PMS5003;63459;51.456;-0.916;2023-06-14T09:06:11;10;9;
73861;PMS5003;63459;51.456;-0.916;2023-06-14T09:08:33;10;10;
73861;PMS5003;63459;51.456;-0.916;2023-06-14T09:15:40;12;11;
73861;PMS5003;63459;51.456;-0.916;2023-06-14T09:18:04;10;10;
73861;PMS5003;63459;51.456;-0.916;2023-06-14T09:20:34;9;8;
73861;PMS5003;63459;51.456;-0.916;2023-06-14T09:23:00;11;11;
73861;PMS5003;63459;51.456;-0.916;2023-06-14T09:25:20;10;9;
73861;PMS5003;63459;51.456;-0.916;2023-06-14T09:27:46;10;10;
73861;PMS5003;63459;51.456;-0.916;2023-06-14T09:30:11;11;10;
73861;PMS5003;63459;51.456;-0.916;2023-06-14T09:32:36;10;10;
73861;PMS5003;63459;51.456;-0.916;2023-06-14T09:35:03;12;11;
73861;PMS5003;63459;51.456;-0.916;2023-06-14T09:37:28;13;11;
73861;PMS5003;63459;51.456;-0.916;2023-06-14T09:39:55;12;12;
73861;PMS5003;63459;51.456;-0.916;2023-06-14T09:42:19;12;12;
73861;PMS5003;63459;51.456;-0.916;2023-06-14T09:44:42;11;11;
73861;PMS5003;63459;51.456;-0.916;2023-06-14T09:47:08;8;8;
73861;PMS5003;63459;51.456;-0.916;2023-06-14T09:49:33;15;14;
73861;PMS5003;63459;51.456;-0.916;2023-06-14T09:51:58;13;12;
73861;PMS5003;63459;51.456;-0.916;2023-06-14T09:54:28;11;11;
73861;PMS5003;63459;51.456;-0.916;2023-06-14T09:56:50;11;11;
73861;PMS5003;63459;51.456;-0.916;2023-06-14T09:59:29;12;11;
73861;PMS5003;63459;51.456;-0.916;2023-06-14T10:01:44;11;11;
73861;PMS5003;63459;51.456;-0.916;2023-06-14T10:04:04;12;12;
73861;PMS5003;63459;51.456;-0.916;2023-06-14T10:08:55;11;10;
73861;PMS5003;63459;51.456;-0.916;2023-06-14T10:11:20;13;11;
73861;PMS5003;63459;51.456;-0.916;2023-06-14T10:13:45;12;12;
73861;PMS5003;63459;51.456;-0.916;2023-06-14T10:16:12;13;11;
73861;PMS5003;63459;51.456;-0.916;2023-06-14T10:18:43;14;14;
73861;PMS5003;63459;51.456;-0.916;2023-06-14T10:21:05;15;14;
73861;PMS5003;63459;51.456;-0.916;2023-06-14T10:23:27;13;12;
73861;PMS5003;63459;51.456;-0.916;2023-06-14T10:25:54;15;15;
73861;PMS5003;63459;51.456;-0.916;2023-06-14T10:28:19;15;15;
73861;PMS5003;63459;51.456;-0.916;2023-06-14T10:35:41;13;13;
73861;PMS5003;63459;51.456;-0.916;2023-06-14T10:42:51;15;15;
73861;PMS5003;63459;51.456;-0.916;2023-06-14T10:47:40;14;14;
73861;PMS5003;63459;51.456;-0.916;2023-06-14T10:50:07;12;12;
73861;PMS5003;63459;51.456;-0.916;2023-06-14T10:52:38;14;14;
73861;PMS5003;63459;51.456;-0.916;2023-06-14T10:57:23;15;15;
73861;PMS5003;63459;51.456;-0.916;2023-06-14T10:59:48;16;16;
73861;PMS5003;63459;51.456;-0.916;2023-06-14T11:02:20;14;14;
73861;PMS5003;63459;51.456;-0.916;2023-06-14T11:04:51;17;17;
73861;PMS5003;63459;51.456;-0.916;2023-06-14T11:09:45;18;17;
73861;PMS5003;63459;51.456;-0.916;2023-06-14T11:11:54;17;16;
73861;PMS5003;63459;51.456;-0.916;2023-06-14T11:14:23;17;17;
73861;PMS5003;63459;51.456;-0.916;2023-06-14T11:16:47;15;14;
73861;PMS5003;63459;51.456;-0.916;2023-06-14T11:19:11;17;17;
73861;PMS5003;63459;51.456;-0.916;2023-06-14T11:21:39;16;15;
73861;PMS5003;63459;51.456;-0.916;2023-06-14T11:24:03;16;16;
73861;PMS5003;63459;51.456;-0.916;2023-06-14T11:26:30;16;16;
73861;PMS5003;63459;51.456;-0.916;2023-06-14T11:28:51;16;16;
73861;PMS5003;63459;51.456;-0.916;2023-06-14T11:31:16;19;17;
73861;PMS5003;63459;51.456;-0.916;2023-06-14T11:33:51;16;16;
73861;PMS5003;63459;51.456;-0.916;2023-06-14T11:36:17;19;19;
73861;PMS5003;63459;51.456;-0.916;2023-06-14T11:38:36;16;16;
73861;PMS5003;63459;51.456;-0.916;2023-06-14T11:40:59;18;17;
73861;PMS5003;63459;51.456;-0.916;2023-06-14T11:43:25;18;18;
73861;PMS5003;63459;51.456;-0.916;2023-06-14T11:45:58;18;18;
73861;PMS5003;63459;51.456;-0.916;2023-06-14T11:48:13;20;19;
73861;PMS5003;63459;51.456;-0.916;2023-06-14T11:50:38;20;18;
73861;PMS5003;63459;51.456;-0.916;2023-06-14T11:53:05;15;14;
73861;PMS5003;63459;51.456;-0.916;2023-06-14T11:55:29;19;18;
73861;PMS5003;63459;51.456;-0.916;2023-06-14T11:57:55;22;20;
73861;PMS5003;63459;51.456;-0.916;2023-06-14T12:00:22;20;19;
73861;PMS5003;63459;51.456;-0.916;2023-06-14T12:05:11;20;19;
73861;PMS5003;63459;51.456;-0.916;2023-06-14T12:07:41;21;20;
73861;PMS5003;63459;51.456;-0.916;2023-06-14T12:10:04;18;17;
73861;PMS5003;63459;51.456;-0.916;2023-06-14T12:12:26;18;17;
73861;PMS5003;63459;51.456;-0.916;2023-06-14T12:14:57;23;22;
73861;PMS5003;63459;51.456;-0.916;2023-06-14T12:17:18;17;17;
73861;PMS5003;63459;51.456;-0.916;2023-06-14T12:19:51;22;19;
73861;PMS5003;63459;51.456;-0.916;2023-06-14T12:22:18;20;19;
73861;PMS5003;63459;51.456;-0.916;2023-06-14T12:24:33;19;19;
73861;PMS5003;63459;51.456;-0.916;2023-06-14T12:29:24;22;22;
73861;PMS5003;63459;51.456;-0.916;2023-06-14T12:31:49;20;19;
73861;PMS5003;63459;51.456;-0.916;2023-06-14T12:34:14;20;20;
73861;PMS5003;63459;51.456;-0.916;2023-06-14T12:36:49;20;20;
73861;PMS5003;63459;51.456;-0.916;2023-06-14T12:39:05;21;20;
73861;PMS5003;63459;51.456;-0.916;2023-06-14T12:41:35;21;21;
73861;PMS5003;63459;51.456;-0.916;2023-06-14T12:43:55;22;22;
73861;PMS5003;63459;51.456;-0.916;2023-06-14T12:46:20;21;21;
73861;PMS5003;63459;51.456;-0.916;2023-06-14T12:48:49;21;21;
73861;PMS5003;63459;51.456;-0.916;2023-06-14T12:51:11;19;19;
73861;PMS5003;63459;51.456;-0.916;2023-06-14T12:53:38;20;20;
73861;PMS5003;63459;51.456;-0.916;2023-06-14T12:56:09;22;22;
73861;PMS5003;63459;51.456;-0.916;2023-06-14T12:58:28;22;22;
73861;PMS5003;63459;51.456;-0.916;2023-06-14T13:00:53;19;19;
73861;PMS5003;63459;51.456;-0.916;2023-06-14T13:03:23;19;18;
73861;PMS5003;63459;51.456;-0.916;2023-06-14T13:05:44;23;23;
73861;PMS5003;63459;51.456;-0.916;2023-06-14T13:08:09;23;22;
73861;PMS5003;63459;51.456;-0.916;2023-06-14T13:10:39;20;19;
73861;PMS5003;63459;51.456;-0.916;2023-06-14T13:13:00;12;12;
73861;PMS5003;63459;51.456;-0.916;2023-06-14T13:15:26;20;20;
73861;PMS5003;63459;51.456;-0.916;2023-06-14T13:17:54;22;22;
73861;PMS5003;63459;51.456;-0.916;2023-06-14T13:20:16;23;23;
73861;PMS5003;63459;51.456;-0.916;2023-06-14T13:22:42;27;24;
73861;PMS5003;63459;51.456;-0.916;2023-06-14T13:25:09;25;23;
73861;PMS5003;63459;51.456;-0.916;2023-06-14T13:30:00;22;21;
73861;PMS5003;63459;51.456;-0.916;2023-06-14T13:32:24;20;19;
73861;PMS5003;63459;51.456;-0.916;2023-06-14T13:34:49;22;22;
73861;PMS5003;63459;51.456;-0.916;2023-06-14T13:37:14;23;22;
73861;PMS5003;63459;51.456;-0.916;2023-06-14T13:39:39;19;19;
73861;PMS5003;63459;51.456;-0.916;2023-06-14T13:42:06;27;27;
73861;PMS5003;63459;51.456;-0.916;2023-06-14T13:44:31;22;22;
73861;PMS5003;63459;51.456;-0.916;2023-06-14T13:46:57;21;19;
73861;PMS5003;63459;51.456;-0.916;2023-06-14T13:49:21;23;22;
73861;PMS5003;63459;51.456;-0.916;2023-06-14T13:51:52;22;21;
73861;PMS5003;63459;51.456;-0.916;2023-06-14T13:54:20;25;25;
73861;PMS5003;63459;51.456;-0.916;2023-06-14T13:56:38;21;21;
73861;PMS5003;63459;51.456;-0.916;2023-06-14T13:59:03;22;21;
73861;PMS5003;63459;51.456;-0.916;2023-06-14T14:01:30;19;19;
73861;PMS5003;63459;51.456;-0.916;2023-06-14T14:03:54;23;22;
73861;PMS5003;63459;51.456;-0.916;2023-06-14T14:06:20;19;19;
73861;PMS5003;63459;51.456;-0.916;2023-06-14T14:08:44;19;18;
73861;PMS5003;63459;51.456;-0.916;2023-06-14T14:11:10;23;22;
73861;PMS5003;63459;51.456;-0.916;2023-06-14T14:13:35;19;19;
73861;PMS5003;63459;51.456;-0.916;2023-06-14T14:16:01;22;21;
73861;PMS5003;63459;51.456;-0.916;2023-06-14T14:18:27;25;25;
73861;PMS5003;63459;51.456;-0.916;2023-06-14T14:20:52;21;20;
73861;PMS5003;63459;51.456;-0.916;2023-06-14T14:23:17;19;19;
73861;PMS5003;63459;51.456;-0.916;2023-06-14T14:25:42;20;20;
73861;PMS5003;63459;51.456;-0.916;2023-06-14T14:28:08;22;22;
73861;PMS5003;63459;51.456;-0.916;2023-06-14T14:30:33;20;20;
73861;PMS5003;63459;51.456;-0.916;2023-06-14T14:32:59;21;20;
73861;PMS5003;63459;51.456;-0.916;2023-06-14T14:35:42;21;21;
73861;PMS5003;63459;51.456;-0.916;2023-06-14T14:37:54;18;18;
73861;PMS5003;63459;51.456;-0.916;2023-06-14T14:42:40;19;17;
73861;PMS5003;63459;51.456;-0.916;2023-06-14T14:45:07;19;17;
73861;PMS5003;63459;51.456;-0.916;2023-06-14T14:47:30;18;18;
73861;PMS5003;63459;51.456;-0.916;2023-06-14T14:49:56;17;17;
73861;PMS5003;63459;51.456;-0.916;2023-06-14T14:52:21;21;20;
73861;PMS5003;63459;51.456;-0.916;2023-06-14T14:54:46;18;18;
73861;PMS5003;63459;51.456;-0.916;2023-06-14T14:57:17;22;21;
73861;PMS5003;63459;51.456;-0.916;2023-06-14T14:59:37;21;20;
73861;PMS5003;63459;51.456;-0.916;2023-06-14T15:02:02;21;20;
73861;PMS5003;63459;51.456;-0.916;2023-06-14T15:04:27;22;21;
73861;PMS5003;63459;51.456;-0.916;2023-06-14T15:07:01;23;23;
73861;PMS5003;63459;51.456;-0.916;2023-06-14T15:09:18;22;20;
73861;PMS5003;63459;51.456;-0.916;2023-06-14T15:11:43;19;18;
73861;PMS5003;63459;51.456;-0.916;2023-06-14T15:14:08;20;20;
73861;PMS5003;63459;51.456;-0.916;2023-06-14T15:16:39;23;23;
73861;PMS5003;63459;51.456;-0.916;2023-06-14T15:19:04;22;22;
73861;PMS5003;63459;51.456;-0.916;2023-06-14T15:21:25;20;20;
73861;PMS5003;63459;51.456;-0.916;2023-06-14T15:23:50;20;20;
73861;PMS5003;63459;51.456;-0.916;2023-06-14T15:26:15;20;20;
73861;PMS5003;63459;51.456;-0.916;2023-06-14T15:28:41;19;19;
73861;PMS5003;63459;51.456;-0.916;2023-06-14T15:31:10;20;20;
73861;PMS5003;63459;51.456;-0.916;2023-06-14T15:33:37;21;20;
73861;PMS5003;63459;51.456;-0.916;2023-06-14T15:35:57;18;18;
73861;PMS5003;63459;51.456;-0.916;2023-06-14T15:38:22;22;22;
73861;PMS5003;63459;51.456;-0.916;2023-06-14T15:40:47;19;18;
73861;PMS5003;63459;51.456;-0.916;2023-06-14T15:43:13;20;19;
73861;PMS5003;63459;51.456;-0.916;2023-06-14T15:45:38;18;18;
73861;PMS5003;63459;51.456;-0.916;2023-06-14T15:48:04;20;19;
73861;PMS5003;63459;51.456;-0.916;2023-06-14T15:50:29;24;23;
73861;PMS5003;63459;51.456;-0.916;2023-06-14T15:52:55;15;15;
73861;PMS5003;63459;51.456;-0.916;2023-06-14T15:55:20;18;18;
73861;PMS5003;63459;51.456;-0.916;2023-06-14T15:57:45;20;19;
73861;PMS5003;63459;51.456;-0.916;2023-06-14T16:00:16;21;20;
73861;PMS5003;63459;51.456;-0.916;2023-06-14T16:05:02;18;18;
73861;PMS5003;63459;51.456;-0.916;2023-06-14T16:07:27;21;20;
73861;PMS5003;63459;51.456;-0.916;2023-06-14T16:09:57;18;18;
73861;PMS5003;63459;51.456;-0.916;2023-06-14T16:14:51;19;18;
73861;PMS5003;63459;51.456;-0.916;2023-06-14T16:17:10;17;17;
73861;PMS5003;63459;51.456;-0.916;2023-06-14T16:22:00;20;19;
73861;PMS5003;63459;51.456;-0.916;2023-06-14T16:24:26;19;19;
73861;PMS5003;63459;51.456;-0.916;2023-06-14T16:26:52;19;19;
73861;PMS5003;63459;51.456;-0.916;2023-06-14T16:29:18;20;19;
73861;PMS5003;63459;51.456;-0.916;2023-06-14T16:31:43;18;18;
73861;PMS5003;63459;51.456;-0.916;2023-06-14T16:34:07;16;14;
73861;PMS5003;63459;51.456;-0.916;2023-06-14T16:36:33;14;14;
73861;PMS5003;63459;51.456;-0.916;2023-06-14T16:39:03;16;15;
73861;PMS5003;63459;51.456;-0.916;2023-06-14T16:41:23;17;17;
73861;PMS5003;63459;51.456;-0.916;2023-06-14T16:43:48;19;18;
73861;PMS5003;63459;51.456;-0.916;2023-06-14T16:46:14;17;17;
73861;PMS5003;63459;51.456;-0.916;2023-06-14T16:48:39;19;19;
73861;PMS5003;63459;51.456;-0.916;2023-06-14T16:51:06;20;19;
73861;PMS5003;63459;51.456;-0.916;2023-06-14T16:53:30;19;19;
73861;PMS5003;63459;51.456;-0.916;2023-06-14T16:55:56;17;16;
73861;PMS5003;63459;51.456;-0.916;2023-06-14T16:58:21;18;18;
73861;PMS5003;63459;51.456;-0.916;2023-06-14T17:03:12;20;19;
73861;PMS5003;63459;51.456;-0.916;2023-06-14T17:05:38;19;19;
73861;PMS5003;63459;51.456;-0.916;2023-06-14T17:08:03;18;18;
73861;PMS5003;63459;51.456;-0.916;2023-06-14T17:10:29;18;18;
73861;PMS5003;63459;51.456;-0.916;2023-06-14T17:12:53;18;17;
73861;PMS5003;63459;51.456;-0.916;2023-06-14T17:15:18;21;20;
73861;PMS5003;63459;51.456;-0.916;2023-06-14T17:17:44;22;22;
73861;PMS5003;63459;51.456;-0.916;2023-06-14T17:20:10;20;20;
73861;PMS5003;63459;51.456;-0.916;2023-06-14T17:22:34;18;18;
73861;PMS5003;63459;51.456;-0.916;2023-06-14T17:25:00;20;20;
73861;PMS5003;63459;51.456;-0.916;2023-06-14T17:27:32;21;21;
73861;PMS5003;63459;51.456;-0.916;2023-06-14T17:29:53;22;22;
73861;PMS5003;63459;51.456;-0.916;2023-06-14T17:32:20;23;23;
73861;PMS5003;63459;51.456;-0.916;2023-06-14T17:34:41;18;17;
73861;PMS5003;63459;51.456;-0.916;2023-06-14T17:37:13;21;21;
73861;PMS5003;63459;51.456;-0.916;2023-06-14T17:39:34;20;19;
73861;PMS5003;63459;51.456;-0.916;2023-06-14T17:41:59;21;20;
73861;PMS5003;63459;51.456;-0.916;2023-06-14T17:44:29;20;19;
73861;PMS5003;63459;51.456;-0.916;2023-06-14T17:46:48;20;20;
73861;PMS5003;63459;51.456;-0.916;2023-06-14T17:49:14;23;22;
73861;PMS5003;63459;51.456;-0.916;2023-06-14T17:51:39;20;20;
73861;PMS5003;63459;51.456;-0.916;2023-06-14T17:54:05;21;21;
73861;PMS5003;63459;51.456;-0.916;2023-06-14T17:56:35;20;20;
73861;PMS5003;63459;51.456;-0.916;2023-06-14T17:59:00;21;21;
73861;PMS5003;63459;51.456;-0.916;2023-06-14T18:01:21;19;19;
73861;PMS5003;63459;51.456;-0.916;2023-06-14T18:03:54;21;21;
73861;PMS5003;63459;51.456;-0.916;2023-06-14T18:06:13;21;21;
73861;PMS5003;63459;51.456;-0.916;2023-06-14T18:08:37;22;22;
73861;PMS5003;63459;51.456;-0.916;2023-06-14T18:11:03;19;19;
73861;PMS5003;63459;51.456;-0.916;2023-06-14T18:15:59;22;22;
73861;PMS5003;63459;51.456;-0.916;2023-06-14T18:18:30;22;22;
73861;PMS5003;63459;51.456;-0.916;2023-06-14T18:20:44;22;21;
73861;PMS5003;63459;51.456;-0.916;2023-06-14T18:23:10;25;23;
73861;PMS5003;63459;51.456;-0.916;2023-06-14T18:25:35;21;21;
73861;PMS5003;63459;51.456;-0.916;2023-06-14T18:28:00;24;23;
73861;PMS5003;63459;51.456;-0.916;2023-06-14T18:30:25;25;24;
73861;PMS5003;63459;51.456;-0.916;2023-06-14T18:32:51;22;21;
73861;PMS5003;63459;51.456;-0.916;2023-06-14T18:35:16;20;19;
73861;PMS5003;63459;51.456;-0.916;2023-06-14T18:37:42;19;19;
73861;PMS5003;63459;51.456;-0.916;2023-06-14T18:40:07;21;21;
73861;PMS5003;63459;51.456;-0.916;2023-06-14T18:42:32;20;20;
73861;PMS5003;63459;51.456;-0.916;2023-06-14T18:44:57;19;18;
73861;PMS5003;63459;51.456;-0.916;2023-06-14T18:47:27;21;19;
73861;PMS5003;63459;51.456;-0.916;2023-06-14T18:49:47;20;20;
73861;PMS5003;63459;51.456;-0.916;2023-06-14T18:52:12;18;18;
73861;PMS5003;63459;51.456;-0.916;2023-06-14T18:54:40;19;18;
73861;PMS5003;63459;51.456;-0.916;2023-06-14T18:57:05;21;21;
73861;PMS5003;63459;51.456;-0.916;2023-06-14T18:59:29;18;18;
73861;PMS5003;63459;51.456;-0.916;2023-06-14T19:01:55;21;21;
73861;PMS5003;63459;51.456;-0.916;2023-06-14T19:04:20;17;17;
73861;PMS5003;63459;51.456;-0.916;2023-06-14T19:06:45;17;16;
73861;PMS5003;63459;51.456;-0.916;2023-06-14T19:09:10;19;18;
73861;PMS5003;63459;51.456;-0.916;2023-06-14T19:11:36;19;18;
73861;PMS5003;63459;51.456;-0.916;2023-06-14T19:16:26;19;19;
73861;PMS5003;63459;51.456;-0.916;2023-06-14T19:18:51;19;19;
73861;PMS5003;63459;51.456;-0.916;2023-06-14T19:21:17;22;22;
73861;PMS5003;63459;51.456;-0.916;2023-06-14T19:26:07;18;18;
73861;PMS5003;63459;51.456;-0.916;2023-06-14T19:31:03;19;17;
73861;PMS5003;63459;51.456;-0.916;2023-06-14T19:33:25;18;18;
73861;PMS5003;63459;51.456;-0.916;2023-06-14T19:35:50;20;20;
73861;PMS5003;63459;51.456;-0.916;2023-06-14T19:38:14;17;17;
73861;PMS5003;63459;51.456;-0.916;2023-06-14T19:40:44;17;16;
73861;PMS5003;63459;51.456;-0.916;2023-06-14T19:43:06;14;14;
73861;PMS5003;63459;51.456;-0.916;2023-06-14T19:45:30;15;15;
73861;PMS5003;63459;51.456;-0.916;2023-06-14T19:50:25;14;14;
73861;PMS5003;63459;51.456;-0.916;2023-06-14T19:52:46;14;14;
73861;PMS5003;63459;51.456;-0.916;2023-06-14T19:57:37;16;16;